Time;durP1;ratioP1;P1;durP2;ratioP2;P2;SDS_P1;SDS_P2;PMS_P1;PMS_P2;Temp;Humidity;BMP_temperature;BMP_pressure;BME280_temperature;BME280_humidity;BME280_pressure;Samples;Min_cycle;Max_cycle;Signal;HPM_P1;HPM_P2
2021/07/07 00:02:29;;;;;;;3.30;0.65;;;;;;;18.89;50.31;101127.47;10097488;28;20046;-82
2021/07/07 00:07:26;;;;;;;4.65;0.80;;;;;;;19.02;50.70;101133.66;10092477;28;20058;-82
2021/07/07 00:12:22;;;;;;;3.75;0.45;;;;;;;18.96;50.78;101126.81;10099387;28;20158;-82
2021/07/07 00:17:19;;;;;;;4.70;0.60;;;;;;;18.87;51.33;101137.31;10100256;28;20138;-82
2021/07/07 00:22:16;;;;;;;7.78;1.10;;;;;;;18.88;51.56;101147.22;10101313;28;20451;-82
2021/07/07 00:27:13;;;;;;;4.82;0.65;;;;;;;18.79;51.98;101154.94;10101484;28;20123;-82
2021/07/07 00:32:10;;;;;;;4.57;1.30;;;;;;;18.68;52.52;101165.75;10098439;28;20053;-81
2021/07/07 00:37:06;;;;;;;3.60;1.13;;;;;;;18.63;52.48;101174.34;10093555;28;20043;-82
2021/07/07 00:42:04;;;;;;;4.85;1.42;;;;;;;18.54;53.22;101176.50;10088778;28;20057;-83
2021/07/07 00:47:00;;;;;;;5.82;0.98;;;;;;;18.56;53.17;101191.59;10090070;28;20051;-84
2021/07/07 00:51:57;;;;;;;3.63;0.63;;;;;;;18.48;53.52;101200.91;10096438;28;20050;-84
2021/07/07 00:56:55;;;;;;;7.93;1.33;;;;;;;18.46;53.61;101203.25;10094077;28;20050;-84
2021/07/07 01:01:55;;;;;;;5.43;1.13;;;;;;;18.41;53.71;101211.84;10095194;28;20043;-84
2021/07/07 01:06:51;;;;;;;5.60;0.80;;;;;;;18.27;54.08;101202.00;10092838;28;20483;-83
2021/07/07 01:11:48;;;;;;;6.35;1.27;;;;;;;18.17;54.44;101213.63;10099810;28;20451;-83
2021/07/07 01:16:45;;;;;;;7.57;1.52;;;;;;;18.21;53.79;101220.03;10096098;28;20090;-80
2021/07/07 01:21:45;;;;;;;6.05;0.90;;;;;;;18.18;54.04;101215.22;10096393;28;20101;-81
2021/07/07 01:26:43;;;;;;;3.53;1.02;;;;;;;18.13;54.46;101217.47;10091368;28;20057;-81
2021/07/07 01:31:41;;;;;;;7.43;0.80;;;;;;;18.13;54.59;101212.75;10088813;28;20047;-81
2021/07/07 01:36:38;;;;;;;4.30;0.85;;;;;;;18.12;54.99;101216.66;10114665;28;20061;-81
2021/07/07 01:41:36;;;;;;;9.70;1.50;;;;;;;18.07;55.06;101217.72;10113642;28;20070;-80
2021/07/07 01:46:33;;;;;;;4.68;1.08;;;;;;;17.99;55.00;101223.44;10087605;28;20141;-80
2021/07/07 01:51:30;;;;;;;4.35;1.40;;;;;;;18.02;55.21;101220.75;10104670;28;20051;-80
2021/07/07 01:56:26;;;;;;;8.88;1.67;;;;;;;18.01;55.52;101226.63;10116182;28;20054;-84
2021/07/07 02:01:23;;;;;;;3.45;0.80;;;;;;;17.99;55.65;101215.94;10102950;28;20057;-81
2021/07/07 02:06:20;;;;;;;4.10;0.70;;;;;;;17.86;55.80;101217.97;10104749;28;20149;-85
2021/07/07 02:11:17;;;;;;;4.47;0.77;;;;;;;17.88;56.28;101212.91;10099567;28;20137;-82
2021/07/07 02:16:13;;;;;;;6.07;0.93;;;;;;;17.87;56.69;101216.84;10103664;28;20055;-79
2021/07/07 02:21:10;;;;;;;4.63;0.80;;;;;;;17.81;56.58;101209.94;10093905;28;20078;-80
2021/07/07 02:26:07;;;;;;;5.43;0.80;;;;;;;17.80;56.70;101205.56;10097729;28;20070;-83
2021/07/07 02:31:04;;;;;;;3.45;0.95;;;;;;;17.74;57.43;101214.47;10098994;28;20053;-83
2021/07/07 02:36:01;;;;;;;5.57;1.13;;;;;;;17.71;57.05;101213.22;10105863;28;20783;-82
2021/07/07 02:40:58;;;;;;;5.85;1.02;;;;;;;17.70;57.68;101211.59;10102543;28;20054;-83
2021/07/07 02:45:56;;;;;;;3.20;0.80;;;;;;;17.71;58.05;101218.75;10099537;28;20047;-83
2021/07/07 02:50:52;;;;;;;3.40;1.30;;;;;;;17.64;59.22;101218.56;10106402;28;20399;-84
2021/07/07 02:55:49;;;;;;;3.78;1.35;;;;;;;17.58;59.48;101215.22;10101088;28;20078;-83
2021/07/07 03:00:49;;;;;;;3.78;1.00;;;;;;;17.48;59.63;101210.22;10096232;28;20381;-83
2021/07/07 03:05:55;;;;;;;5.07;1.15;;;;;;;17.51;59.84;101223.31;10096955;28;20047;-83
2021/07/07 03:10:53;;;;;;;4.05;1.05;;;;;;;17.47;60.13;101227.94;10100640;28;20058;-84
2021/07/07 03:15:50;;;;;;;10.52;1.25;;;;;;;17.52;59.95;101240.72;10094644;28;20078;-81
2021/07/07 03:20:49;;;;;;;2.47;0.95;;;;;;;17.55;59.92;101242.78;10083611;28;20097;-82
2021/07/07 03:25:47;;;;;;;5.95;1.95;;;;;;;17.54;60.14;101241.16;10087609;28;20054;-82
2021/07/07 03:30:44;;;;;;;3.55;1.17;;;;;;;17.54;60.53;101246.69;10101601;28;20055;-81
2021/07/07 03:35:41;;;;;;;3.45;0.90;;;;;;;17.51;60.96;101247.41;10105221;28;20043;-80
2021/07/07 03:40:39;;;;;;;5.70;1.42;;;;;;;17.48;61.31;101248.13;10095788;28;20109;-80
2021/07/07 03:45:38;;;;;;;4.30;1.23;;;;;;;17.41;61.79;101249.53;10104441;28;20042;-81
2021/07/07 03:50:36;;;;;;;4.18;1.05;;;;;;;17.39;62.05;101248.28;10085962;28;20062;-78
2021/07/07 03:55:34;;;;;;;5.13;1.15;;;;;;;17.40;61.43;101253.44;10114144;28;20125;-77
2021/07/07 04:00:32;;;;;;;3.88;1.13;;;;;;;17.40;62.67;101258.94;10088790;28;20055;-78
2021/07/07 04:05:29;;;;;;;5.20;1.40;;;;;;;17.38;63.26;101266.81;10086054;28;20127;-79
2021/07/07 04:10:25;;;;;;;5.20;1.23;;;;;;;17.38;63.03;101277.03;10086684;28;20055;-78
2021/07/07 04:15:22;;;;;;;6.70;1.33;;;;;;;17.37;63.62;101298.38;10086930;28;20054;-79
2021/07/07 04:20:19;;;;;;;4.72;1.58;;;;;;;17.37;63.65;101309.41;10088741;28;20058;-79
2021/07/07 04:25:17;;;;;;;4.85;1.13;;;;;;;17.38;64.10;101308.28;10083390;28;20049;-78
2021/07/07 04:30:20;;;;;;;5.30;1.75;;;;;;;17.42;63.67;101300.88;10096975;28;20101;-78
2021/07/07 04:35:19;;;;;;;5.78;1.48;;;;;;;17.44;63.71;101320.69;10088642;28;20480;-80
2021/07/07 04:40:18;;;;;;;7.57;1.52;;;;;;;17.46;62.89;101318.38;10085693;28;20499;-79
2021/07/07 04:45:15;;;;;;;5.70;1.00;;;;;;;17.48;62.56;101326.31;10087204;28;20043;-78
2021/07/07 04:50:16;;;;;;;4.80;1.23;;;;;;;17.49;63.81;101324.38;10089814;28;20054;-80
2021/07/07 04:55:16;;;;;;;3.47;1.20;;;;;;;17.50;64.12;101323.19;10070688;28;20047;-74
2021/07/07 05:00:19;;;;;;;5.90;1.20;;;;;;;17.50;64.37;101310.19;10085281;28;20043;-75
2021/07/07 05:05:19;;;;;;;5.50;1.35;;;;;;;17.53;64.11;101317.78;10073897;28;20087;-80
2021/07/07 05:10:17;;;;;;;5.57;1.95;;;;;;;17.57;63.20;101315.94;10075969;28;20578;-79
2021/07/07 05:15:15;;;;;;;4.85;1.00;;;;;;;17.63;63.16;101316.47;10072298;28;20066;-79
2021/07/07 05:20:12;;;;;;;6.00;1.15;;;;;;;17.66;63.36;101313.00;10069416;28;20050;-75
2021/07/07 05:25:10;;;;;;;3.72;1.25;;;;;;;17.70;63.55;101332.47;10047689;23;20150;-69
2021/07/07 05:30:09;;;;;;;6.70;1.20;;;;;;;17.73;63.13;101327.06;10010488;29;20136;-69
2021/07/07 05:35:07;;;;;;;7.28;1.42;;;;;;;17.79;62.66;101330.38;10010414;28;20048;-69
2021/07/07 05:40:04;;;;;;;7.15;1.63;;;;;;;17.79;62.33;101336.69;10026340;29;20060;-69
2021/07/07 05:45:01;;;;;;;5.68;1.40;;;;;;;17.78;61.65;101345.38;10021399;29;20044;-69
2021/07/07 05:49:57;;;;;;;3.85;1.23;;;;;;;17.81;61.70;101345.47;10023498;29;20143;-69
2021/07/07 05:54:55;;;;;;;3.97;1.40;;;;;;;17.88;61.81;101353.97;10030817;29;20071;-69
2021/07/07 05:59:52;;;;;;;5.57;1.20;;;;;;;17.91;60.91;101359.97;10014184;29;20072;-69
2021/07/07 06:04:48;;;;;;;5.70;1.63;;;;;;;17.90;60.85;101361.13;10027115;29;20044;-69
2021/07/07 06:09:45;;;;;;;7.97;1.50;;;;;;;17.85;60.86;101374.06;10027834;29;20051;-69
2021/07/07 06:14:41;;;;;;;6.28;1.70;;;;;;;17.90;61.25;101381.28;10024634;29;20111;-69
2021/07/07 06:19:38;;;;;;;9.00;1.40;;;;;;;17.90;61.30;101386.03;10025060;29;20043;-69
2021/07/07 06:24:34;;;;;;;6.55;1.80;;;;;;;17.92;61.37;101389.25;10019559;29;20058;-69
2021/07/07 06:29:31;;;;;;;3.20;1.00;;;;;;;17.98;61.04;101388.63;10032999;29;20071;-69
2021/07/07 06:34:27;;;;;;;5.88;1.50;;;;;;;18.03;61.20;101390.34;10030450;29;20488;-69
2021/07/07 06:39:24;;;;;;;4.97;1.27;;;;;;;18.10;60.32;101401.59;10027589;29;20646;-69
2021/07/07 06:44:20;;;;;;;7.35;1.70;;;;;;;18.10;59.48;101393.31;10033924;29;20496;-69
2021/07/07 06:49:17;;;;;;;5.63;1.25;;;;;;;18.18;60.18;101386.81;10038750;29;20099;-69
2021/07/07 06:54:13;;;;;;;7.03;1.40;;;;;;;18.32;59.46;101396.69;10023020;29;20130;-68
2021/07/07 06:59:09;;;;;;;9.32;1.42;;;;;;;18.43;59.11;101397.78;10050564;28;20074;-68
2021/07/07 07:04:06;;;;;;;7.15;1.30;;;;;;;18.45;57.62;101403.72;10039130;29;20812;-68
2021/07/07 07:09:04;;;;;;;6.55;1.17;;;;;;;18.45;57.85;101417.56;10045706;28;20725;-69
2021/07/07 07:14:00;;;;;;;9.32;1.58;;;;;;;18.41;58.26;101422.25;10036952;29;20551;-68
2021/07/07 07:18:57;;;;;;;6.85;1.67;;;;;;;18.50;57.82;101442.25;10032204;29;20055;-68
2021/07/07 07:23:53;;;;;;;4.13;1.02;;;;;;;18.54;58.20;101437.59;10039975;29;20437;-69
2021/07/07 07:28:50;;;;;;;6.38;1.33;;;;;;;18.69;58.12;101439.59;10033089;29;20048;-69
2021/07/07 07:33:50;;;;;;;5.70;1.88;;;;;;;18.77;58.78;101456.44;10028641;29;20059;-69
2021/07/07 07:39:03;;;;;;;6.93;1.00;;;;;;;18.92;57.84;101466.75;10035994;29;20055;-69
2021/07/07 07:44:00;;;;;;;4.38;1.00;;;;;;;19.11;54.72;101450.19;10030592;29;20463;-69
2021/07/07 07:48:59;;;;;;;6.70;1.00;;;;;;;19.20;54.47;101463.06;10037746;29;20139;-69
2021/07/07 07:53:56;;;;;;;5.82;0.95;;;;;;;19.17;54.61;101464.59;10021699;29;20064;-69
2021/07/07 07:58:53;;;;;;;9.10;1.40;;;;;;;19.13;55.09;101458.97;10030325;29;20457;-69
2021/07/07 08:03:49;;;;;;;5.95;1.00;;;;;;;19.26;55.27;101456.91;10031019;29;20150;-69
2021/07/07 08:08:46;;;;;;;6.82;0.95;;;;;;;19.29;52.57;101466.47;10031680;29;20040;-69
2021/07/07 08:13:43;;;;;;;5.78;0.95;;;;;;;19.38;53.00;101469.84;10033899;29;20071;-69
2021/07/07 08:18:40;;;;;;;8.10;0.98;;;;;;;19.51;52.53;101474.13;10019620;29;20135;-69
2021/07/07 08:23:37;;;;;;;7.10;1.35;;;;;;;19.67;53.05;101470.50;10024506;29;20095;-70
2021/07/07 08:28:33;;;;;;;5.97;0.80;;;;;;;19.82;50.82;101478.03;10029932;29;20056;-69
2021/07/07 08:33:30;;;;;;;3.47;0.70;;;;;;;19.94;49.97;101479.88;10026040;29;20112;-69
2021/07/07 08:38:26;;;;;;;7.88;1.08;;;;;;;20.12;49.23;101485.78;10026012;29;20059;-69
2021/07/07 08:43:24;;;;;;;3.03;0.70;;;;;;;20.18;49.41;101484.34;10032764;29;20451;-68
2021/07/07 08:48:21;;;;;;;3.67;0.90;;;;;;;20.38;50.91;101485.94;10026653;29;20060;-68
2021/07/07 08:53:17;;;;;;;5.30;1.02;;;;;;;20.53;48.65;101489.00;10030272;29;20066;-69
2021/07/07 08:58:14;;;;;;;15.38;1.58;;;;;;;20.61;49.30;101485.22;10015992;29;20563;-69
2021/07/07 09:03:12;;;;;;;5.18;1.00;;;;;;;20.72;49.61;101479.84;10034614;29;20110;-68
2021/07/07 09:08:10;;;;;;;7.07;0.90;;;;;;;20.94;49.86;101478.28;10028741;29;20570;-68
2021/07/07 09:13:12;;;;;;;6.05;1.05;;;;;;;21.06;48.69;101499.53;10035756;29;20047;-68
2021/07/07 09:18:18;;;;;;;7.60;1.48;;;;;;;21.13;48.93;101492.09;10019843;29;20043;-68
2021/07/07 09:23:21;;;;;;;5.18;1.02;;;;;;;21.31;48.28;101494.38;10023808;29;20040;-69
2021/07/07 09:28:27;;;;;;;4.40;1.00;;;;;;;21.47;48.67;101489.50;10026958;29;20086;-69
2021/07/07 09:33:24;;;;;;;5.28;1.23;;;;;;;21.63;47.92;101508.84;10026391;29;20468;-68
2021/07/07 09:38:24;;;;;;;5.80;0.85;;;;;;;21.81;45.51;101509.06;10026931;29;20056;-68
2021/07/07 09:43:20;;;;;;;5.35;0.80;;;;;;;21.96;45.74;101526.81;10026750;29;20580;-68
2021/07/07 09:48:35;;;;;;;5.82;1.15;;;;;;;22.33;47.35;101526.91;10025959;29;20051;-69
2021/07/07 09:53:31;;;;;;;4.28;0.93;;;;;;;22.35;45.67;101524.56;10027370;29;20188;-68
2021/07/07 09:58:29;;;;;;;5.70;1.15;;;;;;;22.70;45.34;101515.00;10026672;29;20106;-68
2021/07/07 10:03:25;;;;;;;7.68;1.75;;;;;;;22.93;43.99;101519.59;10026725;28;20044;-68
2021/07/07 10:08:22;;;;;;;6.40;0.93;;;;;;;23.21;40.71;101519.91;10035974;29;20084;-68
2021/07/07 10:13:19;;;;;;;3.90;0.77;;;;;;;23.50;41.20;101520.13;10022330;29;20408;-67
2021/07/07 10:18:16;;;;;;;5.05;0.85;;;;;;;23.97;40.09;101503.69;10031900;29;20463;-70
2021/07/07 10:23:13;;;;;;;5.85;1.45;;;;;;;24.92;35.61;101513.63;10032251;29;20080;-67
2021/07/07 10:28:26;;;;;;;6.20;1.20;;;;;;;25.76;34.40;101507.63;10033079;29;20055;-68
2021/07/07 10:33:25;;;;;;;6.85;1.05;;;;;;;25.97;34.07;101505.97;10035029;29;20562;-67
2021/07/07 10:38:21;;;;;;;4.32;0.85;;;;;;;26.05;33.99;101509.59;10031182;29;20494;-67
2021/07/07 10:43:27;;;;;;;5.80;1.00;;;;;;;25.74;34.95;101498.84;10041449;29;20728;-67
2021/07/07 10:48:25;;;;;;;3.92;1.10;;;;;;;27.27;32.28;101504.09;10018083;29;20110;-68
2021/07/07 10:53:26;;;;;;;6.65;1.05;;;;;;;28.63;33.39;101502.56;10033734;29;20047;-67
2021/07/07 10:58:26;;;;;;;7.72;0.80;;;;;;;29.76;30.66;101503.94;10038062;28;20099;-67
2021/07/07 11:03:35;;;;;;;6.70;1.02;;;;;;;28.78;29.75;101499.53;10028427;29;20134;-67
2021/07/07 11:08:32;;;;;;;3.80;0.60;;;;;;;29.11;29.32;101493.00;10031754;28;20056;-68
2021/07/07 11:13:42;;;;;;;6.15;0.90;;;;;;;28.93;28.85;101486.84;10028178;29;20147;-68
2021/07/07 11:18:41;;;;;;;4.55;1.10;;;;;;;29.32;28.02;101479.78;10025637;29;20385;-67
2021/07/07 11:23:39;;;;;;;5.07;0.80;;;;;;;28.23;29.53;101485.41;10012071;29;20103;-68
2021/07/07 11:28:37;;;;;;;7.72;1.08;;;;;;;28.97;31.05;101476.31;10032197;29;20527;-67
2021/07/07 11:33:34;;;;;;;2.92;0.80;;;;;;;29.07;27.60;101475.38;10037190;28;20040;-68
2021/07/07 11:38:31;;;;;;;3.95;0.90;;;;;;;28.30;28.13;101479.69;10035432;29;21034;-68
2021/07/07 11:43:30;;;;;;;4.88;0.90;;;;;;;29.23;27.73;101482.34;10021531;29;20122;-67
2021/07/07 11:48:48;;;;;;;4.50;0.80;;;;;;;29.83;27.60;101483.28;10040343;28;20461;-68
2021/07/07 11:53:50;;;;;;;3.70;0.70;;;;;;;29.71;26.74;101495.19;10028994;29;20044;-68
2021/07/07 11:58:55;;;;;;;2.75;0.60;;;;;;;28.68;28.15;101488.00;10030762;29;20095;-68
2021/07/07 12:04:15;;;;;;;2.35;0.55;;;;;;;28.37;29.14;101489.25;10036715;28;20111;-69
2021/07/07 12:09:17;;;;;;;3.25;0.98;;;;;;;27.67;29.84;101488.44;10030735;29;20488;-70
2021/07/07 12:14:14;;;;;;;2.83;0.68;;;;;;;27.64;29.68;101494.09;10021341;29;20067;-68
2021/07/07 12:19:15;;;;;;;2.92;0.73;;;;;;;26.93;30.38;101501.91;10032404;28;20059;-68
2021/07/07 12:24:28;;;;;;;4.00;1.10;;;;;;;27.35;30.43;101496.41;10025072;29;20067;-70
2021/07/07 12:29:27;;;;;;;5.45;0.82;;;;;;;27.73;30.80;101491.59;10034172;28;20055;-70
2021/07/07 12:34:39;;;;;;;4.75;1.17;;;;;;;26.99;29.35;101511.50;10024764;29;20138;-69
2021/07/07 12:39:41;;;;;;;4.27;0.90;;;;;;;26.97;30.70;101507.53;10037187;28;20130;-70
2021/07/07 12:44:39;;;;;;;3.45;0.90;;;;;;;26.48;31.45;101503.78;10035143;28;20138;-69
2021/07/07 12:49:43;;;;;;;8.00;1.08;;;;;;;26.24;32.66;101506.28;10033928;29;20079;-70
2021/07/07 12:54:40;;;;;;;5.18;0.82;;;;;;;25.83;31.73;101509.63;10034319;29;20051;-70
2021/07/07 12:59:50;;;;;;;4.93;1.15;;;;;;;25.67;33.06;101506.44;10021409;29;20599;-69
2021/07/07 13:04:47;;;;;;;4.95;1.10;;;;;;;25.90;33.35;101506.00;10023584;29;20107;-69
2021/07/07 13:09:53;;;;;;;5.07;0.95;;;;;;;25.80;33.96;101508.41;10028600;29;20139;-70
2021/07/07 13:14:57;;;;;;;2.63;0.77;;;;;;;25.60;33.92;101505.25;10030110;29;20063;-69
2021/07/07 13:19:59;;;;;;;4.53;1.00;;;;;;;25.49;34.72;101506.47;10028456;29;20047;-68
2021/07/07 13:24:55;;;;;;;3.45;0.90;;;;;;;25.94;34.47;101510.41;10028142;29;20143;-69
2021/07/07 13:29:52;;;;;;;4.13;0.80;;;;;;;26.03;33.28;101507.19;10031387;29;20138;-69
2021/07/07 13:35:00;;;;;;;4.78;1.00;;;;;;;26.21;33.40;101502.31;10027686;29;20673;-70
2021/07/07 13:40:03;;;;;;;5.05;0.80;;;;;;;26.29;32.42;101507.88;10035097;29;20051;-69
2021/07/07 13:45:00;;;;;;;5.22;1.00;;;;;;;26.09;31.89;101511.16;10040216;29;20483;-69
2021/07/07 13:49:58;;;;;;;4.88;1.00;;;;;;;26.22;32.73;101498.31;10039922;29;20047;-69
2021/07/07 13:54:55;;;;;;;6.35;1.10;;;;;;;26.46;31.40;101495.78;10038224;28;20039;-69
2021/07/07 13:59:52;;;;;;;3.83;0.90;;;;;;;26.41;32.05;101499.81;10035307;29;20091;-69
2021/07/07 14:04:49;;;;;;;4.65;0.80;;;;;;;26.09;32.62;101499.97;10029841;29;20044;-70
2021/07/07 14:09:45;;;;;;;5.45;1.20;;;;;;;25.58;33.92;101504.06;10036924;29;20463;-70
2021/07/07 14:14:42;;;;;;;4.88;1.23;;;;;;;25.43;34.48;101513.66;10031722;28;20082;-70
2021/07/07 14:19:38;;;;;;;5.50;1.90;;;;;;;25.30;35.26;101499.31;10033429;29;20043;-70
2021/07/07 14:24:35;;;;;;;7.57;1.42;;;;;;;26.04;35.96;101503.19;10035673;29;20048;-71
2021/07/07 14:29:32;;;;;;;5.35;1.45;;;;;;;27.63;33.23;101498.91;10029723;29;20202;-69
2021/07/07 14:34:28;;;;;;;6.43;1.15;;;;;;;28.30;29.58;101512.63;10032637;28;20079;-70
2021/07/07 14:39:25;;;;;;;4.47;0.88;;;;;;;27.80;30.13;101516.78;10033307;29;20048;-69
2021/07/07 14:44:22;;;;;;;5.13;1.00;;;;;;;27.13;31.21;101506.97;10032261;29;20075;-70
2021/07/07 14:49:18;;;;;;;4.30;1.20;;;;;;;26.79;32.25;101516.06;10026248;29;20058;-70
2021/07/07 14:54:15;;;;;;;9.57;1.58;;;;;;;26.64;33.65;101502.13;10020442;29;20500;-69
2021/07/07 14:59:11;;;;;;;5.65;0.90;;;;;;;26.54;32.87;101497.34;10036981;28;20244;-68
2021/07/07 15:04:08;;;;;;;4.20;1.20;;;;;;;26.35;33.22;101500.66;10039278;28;20055;-69
2021/07/07 15:09:05;;;;;;;5.07;1.10;;;;;;;26.36;33.77;101499.44;10038588;29;20047;-69
2021/07/07 15:14:01;;;;;;;6.07;1.05;;;;;;;26.15;33.60;101498.31;10029948;29;20067;-69
2021/07/07 15:18:58;;;;;;;6.95;0.90;;;;;;;26.39;33.79;101501.44;10026526;29;20095;-70
2021/07/07 15:23:55;;;;;;;4.47;0.95;;;;;;;26.45;33.64;101499.78;10027688;29;20099;-70
2021/07/07 15:28:52;;;;;;;6.75;1.10;;;;;;;26.47;31.24;101502.19;10041484;29;20106;-70
2021/07/07 15:33:50;;;;;;;6.18;1.13;;;;;;;26.53;32.05;101500.56;10037268;28;20114;-70
2021/07/07 15:38:47;;;;;;;8.52;1.17;;;;;;;26.56;30.88;101499.75;10034452;29;20531;-70
2021/07/07 15:43:44;;;;;;;6.75;1.05;;;;;;;26.74;30.95;101494.06;10029082;29;20079;-70
2021/07/07 15:48:40;;;;;;;4.38;1.02;;;;;;;26.72;32.18;101496.47;10026772;29;20067;-70
2021/07/07 15:53:37;;;;;;;8.02;1.45;;;;;;;26.79;31.87;101502.03;10031517;29;20448;-69
2021/07/07 15:58:34;;;;;;;4.70;1.20;;;;;;;27.30;32.54;101497.66;10024364;28;20080;-70
2021/07/07 16:03:31;;;;;;;3.75;0.90;;;;;;;27.45;31.82;101499.09;10028410;28;20047;-70
2021/07/07 16:08:27;;;;;;;3.60;1.13;;;;;;;26.82;32.39;101501.97;10017179;29;20074;-70
2021/07/07 16:13:24;;;;;;;5.03;1.38;;;;;;;27.49;30.30;101499.88;10016549;29;20629;-70
2021/07/07 16:18:20;;;;;;;5.85;1.00;;;;;;;28.54;28.11;101496.66;10021614;28;20067;-70
2021/07/07 16:23:17;;;;;;;3.55;0.75;;;;;;;28.29;29.15;101509.03;10023196;28;20134;-70
2021/07/07 16:28:13;;;;;;;6.18;0.82;;;;;;;27.43;29.68;101518.41;10014818;29;20048;-69
2021/07/07 16:33:10;;;;;;;6.32;1.63;;;;;;;26.97;30.40;101508.31;10006012;29;20054;-70
2021/07/07 16:38:07;;;;;;;5.85;1.10;;;;;;;27.41;29.63;101515.19;10034191;28;20048;-69
2021/07/07 16:43:03;;;;;;;5.32;1.30;;;;;;;27.03;30.25;101512.25;10006500;29;20043;-69
2021/07/07 16:48:00;;;;;;;6.60;1.42;;;;;;;27.05;31.72;101515.44;10031737;29;20504;-68
2021/07/07 16:52:56;;;;;;;6.63;1.30;;;;;;;28.12;29.71;101518.47;10026737;29;20349;-68
2021/07/07 16:57:53;;;;;;;5.82;1.23;;;;;;;27.11;30.07;101529.03;10014991;29;20097;-67
2021/07/07 17:02:49;;;;;;;8.75;1.48;;;;;;;26.69;30.70;101530.94;10021257;28;20040;-67
2021/07/07 17:07:46;;;;;;;4.20;1.20;;;;;;;26.28;32.20;101545.53;10013808;29;20134;-68
2021/07/07 17:12:43;;;;;;;11.32;1.20;;;;;;;25.85;33.68;101551.22;10030158;28;20094;-67
2021/07/07 17:17:39;;;;;;;5.60;1.15;;;;;;;25.61;33.71;101548.84;10019115;28;20163;-67
2021/07/07 17:22:37;;;;;;;8.68;1.48;;;;;;;25.65;34.07;101553.66;10013208;29;20107;-67
2021/07/07 17:27:34;;;;;;;6.55;1.50;;;;;;;25.94;33.18;101554.44;10033116;29;20146;-68
2021/07/07 17:32:30;;;;;;;4.35;1.02;;;;;;;25.79;32.54;101556.44;10023815;29;20043;-66
2021/07/07 17:37:27;;;;;;;4.25;1.20;;;;;;;25.89;33.08;101557.66;10036981;28;20047;-67
2021/07/07 17:42:23;;;;;;;7.53;1.30;;;;;;;27.34;31.55;101553.75;10028839;29;20048;-68
2021/07/07 17:47:20;;;;;;;3.85;0.90;;;;;;;28.77;29.41;101551.41;10030184;29;20052;-67
2021/07/07 17:52:17;;;;;;;5.72;1.40;;;;;;;27.91;29.11;101553.25;10019386;29;20051;-67
2021/07/07 17:57:13;;;;;;;5.22;1.88;;;;;;;28.18;27.73;101561.78;10026631;29;20078;-67
2021/07/07 18:02:10;;;;;;;3.63;1.10;;;;;;;26.82;29.27;101562.91;10020866;29;20063;-67
2021/07/07 18:07:07;;;;;;;4.60;1.00;;;;;;;26.31;30.97;101572.75;10014101;29;20054;-67
2021/07/07 18:12:05;;;;;;;11.15;1.23;;;;;;;25.95;31.43;101578.47;10015154;29;20063;-67
2021/07/07 18:17:01;;;;;;;4.18;1.05;;;;;;;25.52;31.63;101572.84;10028963;29;20950;-66
2021/07/07 18:21:58;;;;;;;4.78;1.35;;;;;;;25.41;32.56;101581.25;10030861;28;20051;-67
2021/07/07 18:26:54;;;;;;;7.90;2.40;;;;;;;25.20;33.04;101584.81;10034839;28;20492;-69
2021/07/07 18:31:51;;;;;;;5.80;1.15;;;;;;;25.13;33.40;101590.38;10026854;29;20652;-68
2021/07/07 18:36:48;;;;;;;6.05;1.20;;;;;;;25.02;34.16;101600.75;10043060;28;20043;-68
2021/07/07 18:41:44;;;;;;;7.57;1.40;;;;;;;24.97;34.19;101613.13;10035153;29;20057;-68
2021/07/07 18:46:41;;;;;;;7.13;1.40;;;;;;;24.81;34.67;101613.50;10025691;29;20476;-67
2021/07/07 18:51:38;;;;;;;6.50;1.40;;;;;;;24.69;34.99;101616.63;10025062;28;20059;-71
2021/07/07 18:56:34;;;;;;;12.45;1.13;;;;;;;24.64;35.93;101619.81;10058069;29;20056;-71
2021/07/07 19:01:33;;;;;;;4.75;1.50;;;;;;;24.42;36.82;101628.06;10044124;29;21728;-71
2021/07/07 19:06:31;;;;;;;8.38;1.60;;;;;;;24.46;37.16;101642.06;10032943;29;20056;-69
2021/07/07 19:11:28;;;;;;;4.32;1.20;;;;;;;24.37;37.72;101642.44;10030643;29;20049;-70
2021/07/07 19:16:25;;;;;;;6.03;1.50;;;;;;;24.26;38.38;101645.16;10035199;29;20051;-68
2021/07/07 19:21:22;;;;;;;4.72;1.52;;;;;;;24.19;38.87;101644.31;10030838;29;20085;-71
2021/07/07 19:26:20;;;;;;;4.90;1.50;;;;;;;24.02;40.65;101662.53;10036823;29;20046;-72
2021/07/07 19:31:17;;;;;;;8.20;2.00;;;;;;;23.86;40.24;101671.22;10028370;29;20079;-71
2021/07/07 19:36:14;;;;;;;5.93;1.85;;;;;;;23.73;41.31;101679.03;10032253;28;20057;-69
2021/07/07 19:41:10;;;;;;;6.25;1.45;;;;;;;23.64;42.64;101687.72;10042576;28;20079;-70
2021/07/07 19:46:07;;;;;;;6.30;1.63;;;;;;;23.55;43.11;101690.03;10026334;29;20103;-72
2021/07/07 19:51:03;;;;;;;7.93;1.95;;;;;;;23.47;45.25;101685.56;10036620;29;20128;-71
2021/07/07 19:56:00;;;;;;;5.50;1.77;;;;;;;23.37;45.86;101680.66;10033657;29;20055;-72
2021/07/07 20:00:56;;;;;;;4.85;1.80;;;;;;;23.29;46.37;101694.53;10032168;29;20044;-71
2021/07/07 20:06:05;;;;;;;6.45;1.58;;;;;;;23.23;46.80;101696.09;10038311;28;20055;-70
2021/07/07 20:11:03;;;;;;;5.30;2.10;;;;;;;23.17;47.04;101711.56;10046916;29;20051;-70
2021/07/07 20:16:02;;;;;;;6.97;2.80;;;;;;;23.10;46.89;101737.38;10024005;29;20843;-70
2021/07/07 20:20:59;;;;;;;6.28;1.40;;;;;;;22.72;48.82;101743.19;10033395;29;20070;-70
2021/07/07 20:25:56;;;;;;;5.97;1.48;;;;;;;22.52;54.12;101739.72;10044565;29;20075;-71
2021/07/07 20:30:53;;;;;;;8.82;1.88;;;;;;;22.28;57.67;101738.97;10024280;29;20075;-69
2021/07/07 20:35:49;;;;;;;6.22;2.30;;;;;;;22.10;58.85;101749.78;10033392;29;20048;-69
2021/07/07 20:40:46;;;;;;;8.50;2.65;;;;;;;21.99;59.86;101738.44;10021708;29;20100;-70
2021/07/07 20:45:42;;;;;;;7.75;2.35;;;;;;;21.83;59.64;101732.19;10032678;29;20048;-70
2021/07/07 20:50:39;;;;;;;8.02;2.25;;;;;;;21.76;60.14;101732.06;10036828;28;20058;-70
2021/07/07 20:55:38;;;;;;;6.30;2.30;;;;;;;21.63;59.61;101729.47;10020601;29;20043;-70
2021/07/07 21:00:34;;;;;;;9.35;2.97;;;;;;;21.53;60.79;101735.63;10032199;28;20138;-70
2021/07/07 21:05:31;;;;;;;6.38;3.05;;;;;;;21.43;62.27;101739.00;10030056;29;20047;-72
2021/07/07 21:10:28;;;;;;;4.88;2.08;;;;;;;21.34;61.62;101735.63;10015062;29;20047;-71
2021/07/07 21:15:24;;;;;;;8.43;2.70;;;;;;;21.27;61.91;101741.03;10026353;29;20044;-72
2021/07/07 21:20:21;;;;;;;6.63;2.30;;;;;;;21.21;62.66;101744.13;10026553;29;20076;-71
2021/07/07 21:25:18;;;;;;;9.15;3.53;;;;;;;21.15;63.95;101748.34;10023062;29;20040;-72
2021/07/07 21:30:16;;;;;;;8.57;2.40;;;;;;;21.00;64.50;101757.56;10032349;29;20082;-72
2021/07/07 21:35:14;;;;;;;6.22;2.63;;;;;;;20.95;64.86;101755.06;10029029;29;20081;-68
2021/07/07 21:40:12;;;;;;;7.05;2.45;;;;;;;20.91;65.72;101754.19;10028128;29;20051;-68
2021/07/07 21:45:10;;;;;;;6.70;2.42;;;;;;;20.94;65.98;101761.81;10022866;29;20044;-69
2021/07/07 21:50:07;;;;;;;6.20;2.80;;;;;;;20.93;66.68;101762.97;10035484;29;20487;-69
2021/07/07 21:55:06;;;;;;;9.15;3.80;;;;;;;20.90;66.97;101766.47;10026761;29;20044;-69
2021/07/07 22:00:05;;;;;;;6.47;2.95;;;;;;;20.89;67.26;101768.47;10027583;29;20139;-73
2021/07/07 22:05:02;;;;;;;6.70;3.28;;;;;;;20.87;67.79;101775.56;10020915;29;20051;-73
2021/07/07 22:09:59;;;;;;;9.23;3.00;;;;;;;20.83;67.60;101780.22;10041859;29;20060;-68
2021/07/07 22:14:55;;;;;;;6.47;3.15;;;;;;;20.82;67.53;101796.09;10036450;29;20078;-69
2021/07/07 22:19:52;;;;;;;7.72;3.78;;;;;;;20.79;68.16;101797.63;10040807;29;20155;-69
2021/07/07 22:24:49;;;;;;;8.27;2.70;;;;;;;20.81;68.14;101800.03;10034626;29;20036;-69
2021/07/07 22:29:46;;;;;;;7.32;2.55;;;;;;;20.75;67.80;101805.06;10033836;29;20047;-68
2021/07/07 22:34:42;;;;;;;6.00;2.50;;;;;;;20.72;68.03;101797.44;10036958;29;20110;-71
2021/07/07 22:39:39;;;;;;;4.97;2.40;;;;;;;20.67;68.50;101803.28;10027622;29;20102;-71
2021/07/07 22:44:35;;;;;;;5.70;2.20;;;;;;;20.62;68.02;101809.13;10027961;29;20044;-69
2021/07/07 22:49:37;;;;;;;5.38;1.80;;;;;;;20.58;67.89;101799.88;10017975;29;20067;-69